sensor_id;sensor_type;location;lat;lon;timestamp;temperature;humidity
5924;DHT22;2987;50.884;14.818;2023-08-06T00:00:22;15.40;99.90
5924;DHT22;2987;50.884;14.818;2023-08-06T00:02:49;15.40;99.90
5924;DHT22;2987;50.884;14.818;2023-08-06T00:05:15;15.40;99.90
5924;DHT22;2987;50.884;14.818;2023-08-06T00:07:47;15.30;99.90
5924;DHT22;2987;50.884;14.818;2023-08-06T00:10:14;15.40;99.90
5924;DHT22;2987;50.884;14.818;2023-08-06T00:12:40;15.40;99.90
5924;DHT22;2987;50.884;14.818;2023-08-06T00:15:06;15.30;99.90
5924;DHT22;2987;50.884;14.818;2023-08-06T00:17:34;15.30;99.90
5924;DHT22;2987;50.884;14.818;2023-08-06T00:20:01;15.30;99.90
5924;DHT22;2987;50.884;14.818;2023-08-06T00:22:32;15.30;99.90
5924;DHT22;2987;50.884;14.818;2023-08-06T00:24:58;15.30;99.90
5924;DHT22;2987;50.884;14.818;2023-08-06T00:27:24;15.30;99.90
5924;DHT22;2987;50.884;14.818;2023-08-06T00:29:51;15.20;99.90
5924;DHT22;2987;50.884;14.818;2023-08-06T00:32:17;15.20;99.90
5924;DHT22;2987;50.884;14.818;2023-08-06T00:34:43;15.20;99.90
5924;DHT22;2987;50.884;14.818;2023-08-06T00:37:09;15.20;99.90
5924;DHT22;2987;50.884;14.818;2023-08-06T00:39:35;15.10;99.90
5924;DHT22;2987;50.884;14.818;2023-08-06T00:42:01;15.10;99.90
5924;DHT22;2987;50.884;14.818;2023-08-06T00:44:27;15.10;99.90
5924;DHT22;2987;50.884;14.818;2023-08-06T00:46:53;15.10;99.90
5924;DHT22;2987;50.884;14.818;2023-08-06T00:49:20;15.10;99.90
5924;DHT22;2987;50.884;14.818;2023-08-06T00:51:47;15.10;99.90
5924;DHT22;2987;50.884;14.818;2023-08-06T00:54:14;15.10;99.90
5924;DHT22;2987;50.884;14.818;2023-08-06T00:56:41;15.00;99.90
5924;DHT22;2987;50.884;14.818;2023-08-06T00:59:09;15.10;99.90
5924;DHT22;2987;50.884;14.818;2023-08-06T01:01:36;15.10;99.90
5924;DHT22;2987;50.884;14.818;2023-08-06T01:04:02;15.10;99.90
5924;DHT22;2987;50.884;14.818;2023-08-06T01:17:31;15.00;99.90
5924;DHT22;2987;50.884;14.818;2023-08-06T01:19:57;15.00;99.90
5924;DHT22;2987;50.884;14.818;2023-08-06T01:22:23;15.00;99.90
5924;DHT22;2987;50.884;14.818;2023-08-06T01:24:50;15.00;99.90
5924;DHT22;2987;50.884;14.818;2023-08-06T01:27:44;14.90;99.90
5924;DHT22;2987;50.884;14.818;2023-08-06T01:30:13;14.90;99.90
5924;DHT22;2987;50.884;14.818;2023-08-06T01:35:12;14.80;99.90
5924;DHT22;2987;50.884;14.818;2023-08-06T01:37:40;14.80;99.90
5924;DHT22;2987;50.884;14.818;2023-08-06T01:40:12;14.80;99.90
5924;DHT22;2987;50.884;14.818;2023-08-06T01:42:38;14.80;99.90
5924;DHT22;2987;50.884;14.818;2023-08-06T01:45:06;14.80;99.90
5924;DHT22;2987;50.884;14.818;2023-08-06T01:47:32;14.80;99.90
5924;DHT22;2987;50.884;14.818;2023-08-06T01:49:58;14.80;99.90
5924;DHT22;2987;50.884;14.818;2023-08-06T01:52:24;14.80;99.90
5924;DHT22;2987;50.884;14.818;2023-08-06T01:54:50;14.80;99.90
5924;DHT22;2987;50.884;14.818;2023-08-06T01:57:16;14.80;99.90
5924;DHT22;2987;50.884;14.818;2023-08-06T01:59:42;14.80;99.90
5924;DHT22;2987;50.884;14.818;2023-08-06T02:02:08;14.80;99.90
5924;DHT22;2987;50.884;14.818;2023-08-06T02:04:34;14.70;99.90
5924;DHT22;2987;50.884;14.818;2023-08-06T02:07:00;14.70;99.90
5924;DHT22;2987;50.884;14.818;2023-08-06T02:09:26;14.70;99.90
5924;DHT22;2987;50.884;14.818;2023-08-06T02:11:52;14.70;99.90
5924;DHT22;2987;50.884;14.818;2023-08-06T02:14:18;14.70;99.90
5924;DHT22;2987;50.884;14.818;2023-08-06T02:16:44;14.70;99.90
5924;DHT22;2987;50.884;14.818;2023-08-06T02:19:10;14.70;99.90
5924;DHT22;2987;50.884;14.818;2023-08-06T02:21:36;14.70;99.90
5924;DHT22;2987;50.884;14.818;2023-08-06T02:24:02;14.70;99.90
5924;DHT22;2987;50.884;14.818;2023-08-06T02:26:29;14.70;99.90
5924;DHT22;2987;50.884;14.818;2023-08-06T02:28:55;14.60;99.90
5924;DHT22;2987;50.884;14.818;2023-08-06T02:31:21;14.70;99.90
5924;DHT22;2987;50.884;14.818;2023-08-06T02:33:47;14.70;99.90
5924;DHT22;2987;50.884;14.818;2023-08-06T02:36:13;14.70;99.90
5924;DHT22;2987;50.884;14.818;2023-08-06T02:38:39;14.70;99.90
5924;DHT22;2987;50.884;14.818;2023-08-06T02:41:05;14.70;99.90
5924;DHT22;2987;50.884;14.818;2023-08-06T02:43:31;14.60;99.90
5924;DHT22;2987;50.884;14.818;2023-08-06T02:45:58;14.60;99.90
5924;DHT22;2987;50.884;14.818;2023-08-06T02:48:24;14.60;99.90
5924;DHT22;2987;50.884;14.818;2023-08-06T02:50:50;14.70;99.90
5924;DHT22;2987;50.884;14.818;2023-08-06T02:53:16;14.70;99.90
5924;DHT22;2987;50.884;14.818;2023-08-06T02:55:48;14.70;99.90
5924;DHT22;2987;50.884;14.818;2023-08-06T02:58:16;14.70;99.90
5924;DHT22;2987;50.884;14.818;2023-08-06T03:01:02;14.70;99.90
5924;DHT22;2987;50.884;14.818;2023-08-06T03:03:31;14.70;99.90
5924;DHT22;2987;50.884;14.818;2023-08-06T03:06:00;14.70;99.90
5924;DHT22;2987;50.884;14.818;2023-08-06T03:08:36;14.70;99.90
5924;DHT22;2987;50.884;14.818;2023-08-06T03:11:02;14.70;99.90
5924;DHT22;2987;50.884;14.818;2023-08-06T03:13:29;14.70;99.90
5924;DHT22;2987;50.884;14.818;2023-08-06T03:15:56;14.70;99.90
5924;DHT22;2987;50.884;14.818;2023-08-06T03:18:24;14.80;99.90
5924;DHT22;2987;50.884;14.818;2023-08-06T03:20:52;14.70;99.90
5924;DHT22;2987;50.884;14.818;2023-08-06T03:23:18;14.80;99.90
5924;DHT22;2987;50.884;14.818;2023-08-06T03:25:45;14.80;99.90
5924;DHT22;2987;50.884;14.818;2023-08-06T03:28:12;14.80;99.90
5924;DHT22;2987;50.884;14.818;2023-08-06T03:30:38;14.70;99.90
5924;DHT22;2987;50.884;14.818;2023-08-06T03:33:06;14.70;99.90
5924;DHT22;2987;50.884;14.818;2023-08-06T03:35:33;14.70;99.90
5924;DHT22;2987;50.884;14.818;2023-08-06T03:37:59;14.70;99.90
5924;DHT22;2987;50.884;14.818;2023-08-06T03:40:27;14.70;99.90
5924;DHT22;2987;50.884;14.818;2023-08-06T03:42:54;14.70;99.90
5924;DHT22;2987;50.884;14.818;2023-08-06T03:45:20;14.70;99.90
5924;DHT22;2987;50.884;14.818;2023-08-06T03:47:46;14.70;99.90
5924;DHT22;2987;50.884;14.818;2023-08-06T03:50:13;14.70;99.90
5924;DHT22;2987;50.884;14.818;2023-08-06T03:52:42;14.70;99.90
5924;DHT22;2987;50.884;14.818;2023-08-06T03:55:08;14.70;99.90
5924;DHT22;2987;50.884;14.818;2023-08-06T03:57:35;14.70;99.90
5924;DHT22;2987;50.884;14.818;2023-08-06T04:00:01;14.70;99.90
5924;DHT22;2987;50.884;14.818;2023-08-06T04:02:30;14.70;99.90
5924;DHT22;2987;50.884;14.818;2023-08-06T04:04:56;14.70;99.90
5924;DHT22;2987;50.884;14.818;2023-08-06T04:07:25;14.70;99.90
5924;DHT22;2987;50.884;14.818;2023-08-06T04:09:55;14.70;99.90
5924;DHT22;2987;50.884;14.818;2023-08-06T04:12:21;14.70;99.90
5924;DHT22;2987;50.884;14.818;2023-08-06T04:14:47;14.70;99.90
5924;DHT22;2987;50.884;14.818;2023-08-06T04:17:13;14.80;99.90
5924;DHT22;2987;50.884;14.818;2023-08-06T04:19:39;14.70;99.90
5924;DHT22;2987;50.884;14.818;2023-08-06T04:22:05;14.70;99.90
5924;DHT22;2987;50.884;14.818;2023-08-06T04:24:31;14.70;99.90
5924;DHT22;2987;50.884;14.818;2023-08-06T04:26:57;14.70;99.90
5924;DHT22;2987;50.884;14.818;2023-08-06T04:29:23;14.70;99.90
5924;DHT22;2987;50.884;14.818;2023-08-06T04:31:49;14.70;99.90
5924;DHT22;2987;50.884;14.818;2023-08-06T04:34:16;14.70;99.90
5924;DHT22;2987;50.884;14.818;2023-08-06T04:36:42;14.70;99.90
5924;DHT22;2987;50.884;14.818;2023-08-06T04:39:09;14.70;99.90
5924;DHT22;2987;50.884;14.818;2023-08-06T04:41:35;14.70;99.90
5924;DHT22;2987;50.884;14.818;2023-08-06T04:44:01;14.70;99.90
5924;DHT22;2987;50.884;14.818;2023-08-06T04:46:27;14.70;99.90
5924;DHT22;2987;50.884;14.818;2023-08-06T04:48:53;14.70;99.90
5924;DHT22;2987;50.884;14.818;2023-08-06T04:51:19;14.70;99.90
5924;DHT22;2987;50.884;14.818;2023-08-06T04:53:45;14.70;99.90
5924;DHT22;2987;50.884;14.818;2023-08-06T04:56:11;14.70;99.90
5924;DHT22;2987;50.884;14.818;2023-08-06T04:58:37;14.70;99.90
5924;DHT22;2987;50.884;14.818;2023-08-06T05:01:03;14.60;99.90
5924;DHT22;2987;50.884;14.818;2023-08-06T05:03:29;14.60;99.90
5924;DHT22;2987;50.884;14.818;2023-08-06T05:05:55;14.60;99.90
5924;DHT22;2987;50.884;14.818;2023-08-06T05:08:21;14.70;99.90
5924;DHT22;2987;50.884;14.818;2023-08-06T05:13:13;14.70;99.90
5924;DHT22;2987;50.884;14.818;2023-08-06T05:15:39;14.60;99.90
5924;DHT22;2987;50.884;14.818;2023-08-06T05:18:09;14.70;99.90
5924;DHT22;2987;50.884;14.818;2023-08-06T05:20:37;14.70;99.90
5924;DHT22;2987;50.884;14.818;2023-08-06T05:23:03;14.70;99.90
5924;DHT22;2987;50.884;14.818;2023-08-06T05:25:30;14.70;99.90
5924;DHT22;2987;50.884;14.818;2023-08-06T05:27:56;14.70;99.90
5924;DHT22;2987;50.884;14.818;2023-08-06T05:30:22;14.70;99.90
5924;DHT22;2987;50.884;14.818;2023-08-06T05:32:48;14.70;99.90
5924;DHT22;2987;50.884;14.818;2023-08-06T05:35:14;14.70;99.90
5924;DHT22;2987;50.884;14.818;2023-08-06T05:37:40;14.80;99.90
5924;DHT22;2987;50.884;14.818;2023-08-06T05:40:06;14.80;99.90
5924;DHT22;2987;50.884;14.818;2023-08-06T05:42:32;14.80;99.90
5924;DHT22;2987;50.884;14.818;2023-08-06T05:44:59;14.80;99.90
5924;DHT22;2987;50.884;14.818;2023-08-06T05:47:25;14.80;99.90
5924;DHT22;2987;50.884;14.818;2023-08-06T05:49:51;14.80;99.90
5924;DHT22;2987;50.884;14.818;2023-08-06T05:52:17;14.80;99.90
5924;DHT22;2987;50.884;14.818;2023-08-06T05:54:43;14.80;99.90
5924;DHT22;2987;50.884;14.818;2023-08-06T05:57:09;14.80;99.90
5924;DHT22;2987;50.884;14.818;2023-08-06T05:59:35;14.80;99.90
5924;DHT22;2987;50.884;14.818;2023-08-06T06:02:01;14.90;99.90
5924;DHT22;2987;50.884;14.818;2023-08-06T06:04:27;14.90;99.90
5924;DHT22;2987;50.884;14.818;2023-08-06T06:06:53;14.90;99.90
5924;DHT22;2987;50.884;14.818;2023-08-06T06:09:19;14.90;99.90
5924;DHT22;2987;50.884;14.818;2023-08-06T06:11:45;14.90;99.90
5924;DHT22;2987;50.884;14.818;2023-08-06T06:14:11;15.00;99.90
5924;DHT22;2987;50.884;14.818;2023-08-06T06:16:37;15.00;99.90
5924;DHT22;2987;50.884;14.818;2023-08-06T06:19:03;15.00;99.90
5924;DHT22;2987;50.884;14.818;2023-08-06T06:21:28;15.00;99.90
5924;DHT22;2987;50.884;14.818;2023-08-06T06:23:54;15.00;99.90
5924;DHT22;2987;50.884;14.818;2023-08-06T06:26:22;15.10;99.90
5924;DHT22;2987;50.884;14.818;2023-08-06T06:28:48;15.10;99.90
5924;DHT22;2987;50.884;14.818;2023-08-06T06:31:14;15.10;99.90
5924;DHT22;2987;50.884;14.818;2023-08-06T06:33:39;15.10;99.90
5924;DHT22;2987;50.884;14.818;2023-08-06T06:36:05;15.10;99.90
5924;DHT22;2987;50.884;14.818;2023-08-06T06:38:34;15.20;99.90
5924;DHT22;2987;50.884;14.818;2023-08-06T06:41:00;15.20;99.90
5924;DHT22;2987;50.884;14.818;2023-08-06T06:43:26;15.20;99.90
5924;DHT22;2987;50.884;14.818;2023-08-06T06:45:55;15.20;99.90
5924;DHT22;2987;50.884;14.818;2023-08-06T06:48:22;15.20;99.90
5924;DHT22;2987;50.884;14.818;2023-08-06T06:50:48;15.20;99.90
5924;DHT22;2987;50.884;14.818;2023-08-06T06:53:14;15.20;99.90
5924;DHT22;2987;50.884;14.818;2023-08-06T06:55:40;15.20;99.90
5924;DHT22;2987;50.884;14.818;2023-08-06T06:58:06;15.20;99.90
5924;DHT22;2987;50.884;14.818;2023-08-06T07:00:32;15.20;99.90
5924;DHT22;2987;50.884;14.818;2023-08-06T07:02:58;15.30;99.90
5924;DHT22;2987;50.884;14.818;2023-08-06T07:05:24;15.30;99.90
5924;DHT22;2987;50.884;14.818;2023-08-06T07:07:52;15.30;99.90
5924;DHT22;2987;50.884;14.818;2023-08-06T07:10:18;15.40;99.90
5924;DHT22;2987;50.884;14.818;2023-08-06T07:12:44;15.40;99.90
5924;DHT22;2987;50.884;14.818;2023-08-06T07:15:10;15.40;99.90
5924;DHT22;2987;50.884;14.818;2023-08-06T07:17:36;15.40;99.90
5924;DHT22;2987;50.884;14.818;2023-08-06T07:20:02;15.40;99.90
5924;DHT22;2987;50.884;14.818;2023-08-06T07:22:28;15.50;99.90
5924;DHT22;2987;50.884;14.818;2023-08-06T07:24:54;15.50;99.90
5924;DHT22;2987;50.884;14.818;2023-08-06T07:27:20;15.50;99.90
5924;DHT22;2987;50.884;14.818;2023-08-06T07:29:46;15.50;99.90
5924;DHT22;2987;50.884;14.818;2023-08-06T07:32:14;15.50;99.90
5924;DHT22;2987;50.884;14.818;2023-08-06T07:34:39;15.50;99.90
5924;DHT22;2987;50.884;14.818;2023-08-06T07:37:05;15.60;99.90
5924;DHT22;2987;50.884;14.818;2023-08-06T07:39:31;15.60;99.90
5924;DHT22;2987;50.884;14.818;2023-08-06T07:41:57;15.70;99.90
5924;DHT22;2987;50.884;14.818;2023-08-06T07:44:24;15.80;99.90
5924;DHT22;2987;50.884;14.818;2023-08-06T07:46:50;15.80;99.90
5924;DHT22;2987;50.884;14.818;2023-08-06T07:49:16;15.90;99.90
5924;DHT22;2987;50.884;14.818;2023-08-06T07:51:42;15.80;99.90
5924;DHT22;2987;50.884;14.818;2023-08-06T07:54:08;15.90;99.90
5924;DHT22;2987;50.884;14.818;2023-08-06T07:56:34;15.90;99.90
5924;DHT22;2987;50.884;14.818;2023-08-06T07:59:01;15.90;99.90
5924;DHT22;2987;50.884;14.818;2023-08-06T08:01:27;15.90;99.90
5924;DHT22;2987;50.884;14.818;2023-08-06T08:03:53;16.00;99.90
5924;DHT22;2987;50.884;14.818;2023-08-06T08:06:19;16.00;99.90
5924;DHT22;2987;50.884;14.818;2023-08-06T08:11:11;16.10;99.90
5924;DHT22;2987;50.884;14.818;2023-08-06T08:13:37;16.10;99.90
5924;DHT22;2987;50.884;14.818;2023-08-06T08:16:03;16.10;99.90
5924;DHT22;2987;50.884;14.818;2023-08-06T08:18:29;16.20;99.90
5924;DHT22;2987;50.884;14.818;2023-08-06T08:20:57;16.20;99.90
5924;DHT22;2987;50.884;14.818;2023-08-06T08:23:23;16.30;99.90
5924;DHT22;2987;50.884;14.818;2023-08-06T08:25:49;16.30;99.90
5924;DHT22;2987;50.884;14.818;2023-08-06T08:28:15;16.30;99.90
5924;DHT22;2987;50.884;14.818;2023-08-06T08:30:41;16.30;99.90
5924;DHT22;2987;50.884;14.818;2023-08-06T08:33:07;16.30;99.90
5924;DHT22;2987;50.884;14.818;2023-08-06T08:35:34;16.40;99.90
5924;DHT22;2987;50.884;14.818;2023-08-06T08:38:00;16.50;99.90
5924;DHT22;2987;50.884;14.818;2023-08-06T08:40:31;16.50;99.90
5924;DHT22;2987;50.884;14.818;2023-08-06T08:42:58;16.40;99.90
5924;DHT22;2987;50.884;14.818;2023-08-06T08:45:27;16.40;99.90
5924;DHT22;2987;50.884;14.818;2023-08-06T08:47:54;16.40;99.90
5924;DHT22;2987;50.884;14.818;2023-08-06T08:50:21;16.40;99.90
5924;DHT22;2987;50.884;14.818;2023-08-06T08:52:49;16.40;99.90
5924;DHT22;2987;50.884;14.818;2023-08-06T08:55:16;16.40;99.90
5924;DHT22;2987;50.884;14.818;2023-08-06T08:57:43;16.50;99.90
5924;DHT22;2987;50.884;14.818;2023-08-06T09:00:09;16.60;99.90
5924;DHT22;2987;50.884;14.818;2023-08-06T09:02:37;16.50;99.90
5924;DHT22;2987;50.884;14.818;2023-08-06T09:05:05;16.60;99.90
5924;DHT22;2987;50.884;14.818;2023-08-06T09:07:35;16.60;99.90
5924;DHT22;2987;50.884;14.818;2023-08-06T09:10:02;16.70;99.90
5924;DHT22;2987;50.884;14.818;2023-08-06T09:12:30;16.60;99.90
5924;DHT22;2987;50.884;14.818;2023-08-06T09:14:56;16.60;99.90
5924;DHT22;2987;50.884;14.818;2023-08-06T09:17:22;16.70;99.90
5924;DHT22;2987;50.884;14.818;2023-08-06T09:19:48;16.80;99.90
5924;DHT22;2987;50.884;14.818;2023-08-06T09:22:15;16.90;99.90
5924;DHT22;2987;50.884;14.818;2023-08-06T09:24:42;16.90;99.90
5924;DHT22;2987;50.884;14.818;2023-08-06T09:27:12;17.00;99.90
5924;DHT22;2987;50.884;14.818;2023-08-06T09:29:41;17.00;99.90
5924;DHT22;2987;50.884;14.818;2023-08-06T09:34:33;16.90;99.90
5924;DHT22;2987;50.884;14.818;2023-08-06T09:36:59;16.80;99.90
5924;DHT22;2987;50.884;14.818;2023-08-06T09:39:28;16.70;99.90
5924;DHT22;2987;50.884;14.818;2023-08-06T09:41:59;16.60;99.90
5924;DHT22;2987;50.884;14.818;2023-08-06T09:44:27;16.60;99.90
5924;DHT22;2987;50.884;14.818;2023-08-06T09:46:56;16.50;99.90
5924;DHT22;2987;50.884;14.818;2023-08-06T09:49:27;16.50;99.90
5924;DHT22;2987;50.884;14.818;2023-08-06T09:51:54;16.50;99.90
5924;DHT22;2987;50.884;14.818;2023-08-06T09:54:24;16.50;99.90
5924;DHT22;2987;50.884;14.818;2023-08-06T09:56:53;16.50;99.90
5924;DHT22;2987;50.884;14.818;2023-08-06T09:59:19;16.60;99.90
5924;DHT22;2987;50.884;14.818;2023-08-06T10:01:46;16.70;99.90
5924;DHT22;2987;50.884;14.818;2023-08-06T10:06:43;16.80;99.90
5924;DHT22;2987;50.884;14.818;2023-08-06T10:09:09;16.90;99.90
5924;DHT22;2987;50.884;14.818;2023-08-06T10:11:37;17.00;99.90
5924;DHT22;2987;50.884;14.818;2023-08-06T10:14:08;17.00;99.90
5924;DHT22;2987;50.884;14.818;2023-08-06T10:16:36;17.00;99.90
5924;DHT22;2987;50.884;14.818;2023-08-06T10:19:04;17.00;99.90
5924;DHT22;2987;50.884;14.818;2023-08-06T10:21:31;17.00;99.90
5924;DHT22;2987;50.884;14.818;2023-08-06T10:23:57;16.90;99.90
5924;DHT22;2987;50.884;14.818;2023-08-06T10:26:27;16.90;99.90
5924;DHT22;2987;50.884;14.818;2023-08-06T10:28:53;16.90;99.90
5924;DHT22;2987;50.884;14.818;2023-08-06T10:31:20;16.80;99.90
5924;DHT22;2987;50.884;14.818;2023-08-06T10:33:47;16.90;99.90
5924;DHT22;2987;50.884;14.818;2023-08-06T10:36:15;16.90;99.90
5924;DHT22;2987;50.884;14.818;2023-08-06T10:38:49;16.90;99.90
5924;DHT22;2987;50.884;14.818;2023-08-06T10:43:47;17.00;99.90
5924;DHT22;2987;50.884;14.818;2023-08-06T10:46:23;17.00;99.90
5924;DHT22;2987;50.884;14.818;2023-08-06T10:48:49;17.00;99.90
5924;DHT22;2987;50.884;14.818;2023-08-06T10:51:16;17.00;99.90
5924;DHT22;2987;50.884;14.818;2023-08-06T10:53:44;17.00;99.90
5924;DHT22;2987;50.884;14.818;2023-08-06T10:56:12;17.00;99.90
5924;DHT22;2987;50.884;14.818;2023-08-06T10:58:40;17.00;99.90
5924;DHT22;2987;50.884;14.818;2023-08-06T11:01:07;17.00;99.90
5924;DHT22;2987;50.884;14.818;2023-08-06T11:03:34;17.00;99.90
5924;DHT22;2987;50.884;14.818;2023-08-06T11:06:00;16.90;99.90
5924;DHT22;2987;50.884;14.818;2023-08-06T11:08:29;16.90;99.90
5924;DHT22;2987;50.884;14.818;2023-08-06T11:10:56;16.80;99.90
5924;DHT22;2987;50.884;14.818;2023-08-06T11:13:32;16.80;99.90
5924;DHT22;2987;50.884;14.818;2023-08-06T11:15:59;16.80;99.90
5924;DHT22;2987;50.884;14.818;2023-08-06T11:18:25;16.90;99.90
5924;DHT22;2987;50.884;14.818;2023-08-06T11:20:51;16.90;99.90
5924;DHT22;2987;50.884;14.818;2023-08-06T11:23:18;16.90;99.90
5924;DHT22;2987;50.884;14.818;2023-08-06T11:25:45;17.00;99.90
5924;DHT22;2987;50.884;14.818;2023-08-06T11:28:12;17.00;99.90
5924;DHT22;2987;50.884;14.818;2023-08-06T11:30:38;17.00;99.90
5924;DHT22;2987;50.884;14.818;2023-08-06T11:33:07;17.00;99.90
5924;DHT22;2987;50.884;14.818;2023-08-06T11:35:37;17.00;99.90
5924;DHT22;2987;50.884;14.818;2023-08-06T11:38:03;17.00;99.90
5924;DHT22;2987;50.884;14.818;2023-08-06T11:40:30;17.00;99.90
5924;DHT22;2987;50.884;14.818;2023-08-06T11:42:58;17.10;99.90
5924;DHT22;2987;50.884;14.818;2023-08-06T11:45:24;17.10;99.90
5924;DHT22;2987;50.884;14.818;2023-08-06T11:47:51;17.10;99.90
5924;DHT22;2987;50.884;14.818;2023-08-06T11:50:24;17.10;99.90
5924;DHT22;2987;50.884;14.818;2023-08-06T11:52:56;17.00;99.90
5924;DHT22;2987;50.884;14.818;2023-08-06T11:55:24;17.00;99.90
5924;DHT22;2987;50.884;14.818;2023-08-06T11:57:50;17.00;99.90
5924;DHT22;2987;50.884;14.818;2023-08-06T12:00:16;17.00;99.90
5924;DHT22;2987;50.884;14.818;2023-08-06T12:02:46;17.10;99.90
5924;DHT22;2987;50.884;14.818;2023-08-06T12:05:14;17.10;99.90
5924;DHT22;2987;50.884;14.818;2023-08-06T12:07:50;17.10;99.90
5924;DHT22;2987;50.884;14.818;2023-08-06T12:10:16;17.10;99.90
5924;DHT22;2987;50.884;14.818;2023-08-06T12:12:45;17.10;99.90
5924;DHT22;2987;50.884;14.818;2023-08-06T12:15:11;17.10;99.90
5924;DHT22;2987;50.884;14.818;2023-08-06T12:17:38;17.10;99.90
5924;DHT22;2987;50.884;14.818;2023-08-06T12:20:06;17.10;99.90
5924;DHT22;2987;50.884;14.818;2023-08-06T12:22:33;17.10;99.90
5924;DHT22;2987;50.884;14.818;2023-08-06T12:25:03;17.10;99.90
5924;DHT22;2987;50.884;14.818;2023-08-06T12:27:29;17.10;99.90
5924;DHT22;2987;50.884;14.818;2023-08-06T12:29:55;17.20;99.90
5924;DHT22;2987;50.884;14.818;2023-08-06T12:32:21;17.30;99.90
5924;DHT22;2987;50.884;14.818;2023-08-06T12:34:49;17.40;99.90
5924;DHT22;2987;50.884;14.818;2023-08-06T12:37:16;17.40;99.90
5924;DHT22;2987;50.884;14.818;2023-08-06T12:39:42;17.50;99.90
5924;DHT22;2987;50.884;14.818;2023-08-06T12:42:08;17.60;99.90
5924;DHT22;2987;50.884;14.818;2023-08-06T12:44:34;17.60;99.90
5924;DHT22;2987;50.884;14.818;2023-08-06T12:47:00;17.60;99.90
5924;DHT22;2987;50.884;14.818;2023-08-06T12:49:26;17.70;99.90
5924;DHT22;2987;50.884;14.818;2023-08-06T12:51:54;17.70;99.90
5924;DHT22;2987;50.884;14.818;2023-08-06T12:54:20;17.70;99.90
5924;DHT22;2987;50.884;14.818;2023-08-06T12:56:47;17.60;99.90
5924;DHT22;2987;50.884;14.818;2023-08-06T12:59:15;17.40;99.90
5924;DHT22;2987;50.884;14.818;2023-08-06T13:01:42;17.20;99.90
5924;DHT22;2987;50.884;14.818;2023-08-06T13:04:08;17.10;99.90
5924;DHT22;2987;50.884;14.818;2023-08-06T13:06:35;17.10;99.90
5924;DHT22;2987;50.884;14.818;2023-08-06T13:09:04;17.10;99.90
5924;DHT22;2987;50.884;14.818;2023-08-06T13:11:30;17.10;99.90
5924;DHT22;2987;50.884;14.818;2023-08-06T13:14:04;17.00;99.90
5924;DHT22;2987;50.884;14.818;2023-08-06T13:16:32;17.10;99.90
5924;DHT22;2987;50.884;14.818;2023-08-06T13:18:58;17.10;99.90
5924;DHT22;2987;50.884;14.818;2023-08-06T13:21:24;17.10;99.90
5924;DHT22;2987;50.884;14.818;2023-08-06T13:23:50;17.00;99.90
5924;DHT22;2987;50.884;14.818;2023-08-06T13:26:17;16.90;99.90
5924;DHT22;2987;50.884;14.818;2023-08-06T13:28:43;16.90;99.90
5924;DHT22;2987;50.884;14.818;2023-08-06T13:31:10;17.00;99.90
5924;DHT22;2987;50.884;14.818;2023-08-06T13:33:36;17.00;99.90
5924;DHT22;2987;50.884;14.818;2023-08-06T13:36:01;17.00;99.90
5924;DHT22;2987;50.884;14.818;2023-08-06T13:38:28;17.00;99.90
5924;DHT22;2987;50.884;14.818;2023-08-06T13:40:53;17.10;99.90
5924;DHT22;2987;50.884;14.818;2023-08-06T13:43:19;17.10;99.90
5924;DHT22;2987;50.884;14.818;2023-08-06T13:45:45;17.10;99.90
5924;DHT22;2987;50.884;14.818;2023-08-06T13:48:11;17.20;99.90
5924;DHT22;2987;50.884;14.818;2023-08-06T13:50:37;17.20;99.90
5924;DHT22;2987;50.884;14.818;2023-08-06T13:53:03;17.30;99.90
5924;DHT22;2987;50.884;14.818;2023-08-06T13:55:29;17.30;99.90
5924;DHT22;2987;50.884;14.818;2023-08-06T13:57:56;17.20;99.90
5924;DHT22;2987;50.884;14.818;2023-08-06T14:00:21;17.20;99.90
5924;DHT22;2987;50.884;14.818;2023-08-06T14:02:47;17.10;99.90
5924;DHT22;2987;50.884;14.818;2023-08-06T14:05:13;17.10;99.90
5924;DHT22;2987;50.884;14.818;2023-08-06T14:07:39;17.10;99.90
5924;DHT22;2987;50.884;14.818;2023-08-06T14:10:05;17.20;99.90
5924;DHT22;2987;50.884;14.818;2023-08-06T14:12:32;17.20;99.90
5924;DHT22;2987;50.884;14.818;2023-08-06T14:14:58;17.20;99.90
5924;DHT22;2987;50.884;14.818;2023-08-06T14:17:24;17.30;99.90
5924;DHT22;2987;50.884;14.818;2023-08-06T14:19:50;17.30;99.90
5924;DHT22;2987;50.884;14.818;2023-08-06T14:22:16;17.40;99.90
5924;DHT22;2987;50.884;14.818;2023-08-06T14:24:42;17.40;99.90
5924;DHT22;2987;50.884;14.818;2023-08-06T14:27:08;17.40;99.90
5924;DHT22;2987;50.884;14.818;2023-08-06T14:29:34;17.30;99.90
5924;DHT22;2987;50.884;14.818;2023-08-06T14:32:00;17.30;99.90
5924;DHT22;2987;50.884;14.818;2023-08-06T14:34:26;17.40;99.90
5924;DHT22;2987;50.884;14.818;2023-08-06T14:36:53;17.40;99.90
5924;DHT22;2987;50.884;14.818;2023-08-06T14:39:19;17.40;99.90
5924;DHT22;2987;50.884;14.818;2023-08-06T14:41:45;17.30;99.90
5924;DHT22;2987;50.884;14.818;2023-08-06T14:44:11;17.40;99.90
5924;DHT22;2987;50.884;14.818;2023-08-06T14:46:37;17.40;99.90
5924;DHT22;2987;50.884;14.818;2023-08-06T14:49:03;17.40;99.90
5924;DHT22;2987;50.884;14.818;2023-08-06T14:51:29;17.40;99.90
5924;DHT22;2987;50.884;14.818;2023-08-06T14:53:55;17.40;99.90
5924;DHT22;2987;50.884;14.818;2023-08-06T14:56:21;17.50;99.90
5924;DHT22;2987;50.884;14.818;2023-08-06T15:01:13;17.40;99.90
5924;DHT22;2987;50.884;14.818;2023-08-06T15:03:39;17.40;99.90
5924;DHT22;2987;50.884;14.818;2023-08-06T15:06:05;17.50;99.90
5924;DHT22;2987;50.884;14.818;2023-08-06T15:08:31;17.50;99.90
5924;DHT22;2987;50.884;14.818;2023-08-06T15:10:57;17.50;99.90
5924;DHT22;2987;50.884;14.818;2023-08-06T15:13:24;17.50;99.90
5924;DHT22;2987;50.884;14.818;2023-08-06T15:15:50;17.60;99.90
5924;DHT22;2987;50.884;14.818;2023-08-06T15:18:16;17.50;99.90
5924;DHT22;2987;50.884;14.818;2023-08-06T15:20:42;17.50;99.90
5924;DHT22;2987;50.884;14.818;2023-08-06T15:23:08;17.50;99.90
5924;DHT22;2987;50.884;14.818;2023-08-06T15:25:34;17.40;99.90
5924;DHT22;2987;50.884;14.818;2023-08-06T15:28:00;17.30;99.90
5924;DHT22;2987;50.884;14.818;2023-08-06T15:30:26;17.30;99.90
5924;DHT22;2987;50.884;14.818;2023-08-06T15:32:52;17.30;99.90
5924;DHT22;2987;50.884;14.818;2023-08-06T15:35:18;17.40;99.90
5924;DHT22;2987;50.884;14.818;2023-08-06T15:37:44;17.40;99.90
5924;DHT22;2987;50.884;14.818;2023-08-06T15:40:10;17.40;99.90
5924;DHT22;2987;50.884;14.818;2023-08-06T15:42:36;17.40;99.90
5924;DHT22;2987;50.884;14.818;2023-08-06T15:45:02;17.40;99.90
5924;DHT22;2987;50.884;14.818;2023-08-06T15:47:30;17.50;99.90
5924;DHT22;2987;50.884;14.818;2023-08-06T15:49:56;17.50;99.90
5924;DHT22;2987;50.884;14.818;2023-08-06T15:52:22;17.50;99.90
5924;DHT22;2987;50.884;14.818;2023-08-06T15:54:48;17.40;99.90
5924;DHT22;2987;50.884;14.818;2023-08-06T15:57:14;17.50;99.90
5924;DHT22;2987;50.884;14.818;2023-08-06T15:59:42;17.50;99.90
5924;DHT22;2987;50.884;14.818;2023-08-06T16:02:08;17.50;99.90
5924;DHT22;2987;50.884;14.818;2023-08-06T16:04:35;17.50;99.90
5924;DHT22;2987;50.884;14.818;2023-08-06T16:07:01;17.50;99.90
5924;DHT22;2987;50.884;14.818;2023-08-06T16:09:27;17.50;99.90